createdAt,value
2018-04-06T00:01:42.329Z,6.07
2018-04-06T00:04:08.597Z,4.45
2018-04-06T00:06:34.829Z,4.90
2018-04-06T00:09:01.114Z,5.50
2018-04-06T00:11:27.390Z,4.72
2018-04-06T00:13:53.991Z,5.03
2018-04-06T00:16:20.226Z,4.37
2018-04-06T00:18:46.482Z,4.68
2018-04-06T00:21:13.056Z,4.20
2018-04-06T00:23:40.004Z,4.18
2018-04-06T00:26:06.204Z,4.75
2018-04-06T00:28:32.472Z,5.18
2018-04-06T00:30:58.721Z,5.45
2018-04-06T00:33:24.926Z,5.57
2018-04-06T00:35:51.192Z,4.32
2018-04-06T00:38:17.444Z,4.43
2018-04-06T00:40:44.054Z,6.20
2018-04-06T00:43:10.246Z,4.87
2018-04-06T00:45:36.477Z,3.83
2018-04-06T00:48:02.694Z,4.40
2018-04-06T00:50:29.664Z,5.15
2018-04-06T00:52:55.901Z,4.18
2018-04-06T00:55:22.139Z,4.80
2018-04-06T00:57:48.358Z,4.32
2018-04-06T01:00:14.588Z,4.15
2018-04-06T01:02:40.807Z,4.20
2018-04-06T01:05:07.036Z,5.22
2018-04-06T01:07:33.255Z,4.37
2018-04-06T01:09:59.496Z,4.80
2018-04-06T01:12:25.712Z,5.62
2018-04-06T01:14:51.932Z,4.93
2018-04-06T01:17:18.145Z,6.72
2018-04-06T01:19:44.447Z,4.15
2018-04-06T01:22:11.050Z,4.50
2018-04-06T01:24:37.242Z,4.40
2018-04-06T01:27:03.449Z,5.00
2018-04-06T01:29:29.664Z,4.30
2018-04-06T01:31:55.869Z,4.55
2018-04-06T01:34:22.082Z,3.90
2018-04-06T01:36:48.316Z,6.97
2018-04-06T01:39:14.535Z,4.20
2018-04-06T01:41:40.757Z,7.12
2018-04-06T01:44:06.968Z,4.40
2018-04-06T01:46:33.209Z,4.10
2018-04-06T01:48:59.438Z,5.03
2018-04-06T01:51:25.717Z,5.28
2018-04-06T01:53:52.294Z,4.80
2018-04-06T01:56:18.562Z,5.90
2018-04-06T01:58:44.779Z,6.05
2018-04-06T02:01:10.997Z,4.40
2018-04-06T02:03:37.218Z,8.05
2018-04-06T02:06:03.499Z,5.25
2018-04-06T02:08:29.754Z,4.62
2018-04-06T02:10:56.002Z,4.20
2018-04-06T02:13:22.253Z,4.05
2018-04-06T02:15:49.792Z,5.95
2018-04-06T02:18:16.039Z,5.32
2018-04-06T02:20:42.275Z,4.28
2018-04-06T02:23:08.518Z,7.32
2018-04-06T02:25:34.758Z,6.25
2018-04-06T02:28:00.975Z,5.18
2018-04-06T02:30:27.264Z,4.87
2018-04-06T02:32:53.477Z,4.53
2018-04-06T02:35:19.737Z,4.87
2018-04-06T02:37:45.951Z,4.90
2018-04-06T02:40:12.195Z,6.72
2018-04-06T02:42:38.402Z,5.32
2018-04-06T02:45:04.623Z,6.03
2018-04-06T02:47:30.859Z,6.07
2018-04-06T02:49:57.147Z,6.20
2018-04-06T02:52:23.405Z,6.70
2018-04-06T02:54:49.618Z,5.60
2018-04-06T02:57:15.847Z,5.10
2018-04-06T02:59:42.077Z,6.05
2018-04-06T03:02:08.309Z,5.03
2018-04-06T03:04:34.563Z,5.60
2018-04-06T03:07:00.813Z,6.10
2018-04-06T03:09:27.061Z,6.07
2018-04-06T03:11:53.321Z,5.60
2018-04-06T03:14:19.538Z,5.75
2018-04-06T03:16:45.792Z,5.30
2018-04-06T03:19:12.033Z,6.35
2018-04-06T03:21:38.288Z,6.53
2018-04-06T03:24:04.909Z,5.65
2018-04-06T03:26:31.177Z,7.85
2018-04-06T03:28:57.389Z,7.20
2018-04-06T03:31:23.990Z,6.15
2018-04-06T03:33:50.193Z,5.57
2018-04-06T03:36:16.419Z,5.90
2018-04-06T03:38:42.630Z,5.78
2018-04-06T03:41:08.876Z,6.80
2018-04-06T03:43:35.130Z,5.93
2018-04-06T03:46:01.365Z,6.37
2018-04-06T03:48:27.622Z,5.70
2018-04-06T03:50:54.252Z,7.15
2018-04-06T03:53:20.470Z,6.47
2018-04-06T03:55:46.694Z,8.75
2018-04-06T03:58:12.979Z,7.60
2018-04-06T04:00:39.246Z,6.35
2018-04-06T04:03:05.519Z,7.87
2018-04-06T04:05:31.763Z,8.20
2018-04-06T04:07:58.020Z,6.60
2018-04-06T04:10:24.237Z,7.35
2018-04-06T04:12:51.767Z,7.28
2018-04-06T04:15:18.013Z,7.75
2018-04-06T04:17:44.294Z,7.07
2018-04-06T04:20:10.886Z,8.35
2018-04-06T04:22:37.157Z,8.63
2018-04-06T04:25:03.401Z,8.55
2018-04-06T04:27:30.011Z,8.43
2018-04-06T04:29:56.912Z,7.05
2018-04-06T04:32:23.173Z,8.90
2018-04-06T04:34:49.380Z,7.80
2018-04-06T04:37:15.628Z,8.20
2018-04-06T04:39:41.889Z,11.25
2018-04-06T04:42:08.566Z,8.32
2018-04-06T04:44:34.822Z,7.55
2018-04-06T04:47:01.149Z,9.18
2018-04-06T04:49:27.406Z,8.68
2018-04-06T04:51:53.687Z,9.63
2018-04-06T04:54:19.919Z,8.70
2018-04-06T04:56:46.193Z,8.80
2018-04-06T04:59:12.820Z,12.63
2018-04-06T05:01:39.054Z,10.88
2018-04-06T05:04:06.326Z,8.48
2018-04-06T05:06:32.937Z,9.95
2018-04-06T05:08:59.216Z,10.18
2018-04-06T05:11:25.450Z,9.88
2018-04-06T05:13:51.736Z,10.88
2018-04-06T05:16:17.949Z,9.38
2018-04-06T05:18:44.207Z,9.65
2018-04-06T05:21:10.401Z,9.02
2018-04-06T05:23:36.628Z,10.55
2018-04-06T05:26:02.849Z,12.00
2018-04-06T05:28:29.100Z,12.18
2018-04-06T05:30:55.310Z,10.70
2018-04-06T05:33:21.568Z,11.80
2018-04-06T05:35:48.787Z,12.30
2018-04-06T05:38:15.038Z,11.82
2018-04-06T05:40:41.286Z,13.55
2018-04-06T05:43:07.546Z,12.85
2018-04-06T05:45:33.776Z,13.60
2018-04-06T05:48:00.061Z,12.37
2018-04-06T05:50:26.665Z,14.93
2018-04-06T05:52:52.930Z,14.55
2018-04-06T05:55:19.514Z,14.35
2018-04-06T05:57:45.728Z,13.88
2018-04-06T06:00:11.961Z,14.48
2018-04-06T06:02:38.218Z,14.45
2018-04-06T06:05:04.468Z,17.00
2018-04-06T06:07:30.732Z,17.45
2018-04-06T06:09:56.971Z,16.30
2018-04-06T06:12:23.272Z,12.40
2018-04-06T06:14:49.529Z,16.55
2018-04-06T06:17:15.779Z,14.23
2018-04-06T06:19:42.051Z,16.33
2018-04-06T06:22:08.686Z,14.38
2018-04-06T06:24:35.359Z,13.43
2018-04-06T06:27:01.581Z,12.27
2018-04-06T06:29:27.835Z,11.45
2018-04-06T06:31:54.070Z,12.68
2018-04-06T06:34:20.306Z,15.00
2018-04-06T06:36:46.526Z,16.60
2018-04-06T06:39:12.760Z,12.90
2018-04-06T06:41:38.982Z,14.18
2018-04-06T06:44:05.234Z,10.48
2018-04-06T06:46:31.813Z,11.55
2018-04-06T06:48:58.103Z,11.52
2018-04-06T06:51:24.346Z,16.30
2018-04-06T06:53:50.958Z,15.07
2018-04-06T06:56:17.277Z,14.50
2018-04-06T06:58:43.541Z,11.80
2018-04-06T07:01:10.138Z,11.40
2018-04-06T07:03:36.384Z,12.07
2018-04-06T07:06:02.618Z,11.82
2018-04-06T07:08:28.872Z,9.93
2018-04-06T07:10:55.448Z,12.73
2018-04-06T07:13:21.675Z,12.88
2018-04-06T07:15:47.928Z,11.30
2018-04-06T07:18:14.164Z,13.02
2018-04-06T07:20:40.431Z,14.75
2018-04-06T07:23:06.656Z,12.52
2018-04-06T07:25:32.911Z,11.73
2018-04-06T07:27:59.167Z,14.10
2018-04-06T07:30:26.274Z,9.98
2018-04-06T07:32:53.227Z,12.65
2018-04-06T07:35:19.482Z,10.73
2018-04-06T07:37:45.718Z,9.85
2018-04-06T07:40:11.988Z,11.00
2018-04-06T07:42:38.596Z,11.77
2018-04-06T07:45:04.842Z,11.85
2018-04-06T07:47:31.429Z,9.68
2018-04-06T07:49:57.706Z,10.02
2018-04-06T07:52:23.915Z,13.05
2018-04-06T07:54:50.168Z,10.45
2018-04-06T07:57:16.411Z,10.85
2018-04-06T07:59:42.616Z,11.55
2018-04-06T08:02:08.919Z,11.20
2018-04-06T08:04:35.175Z,9.88
2018-04-06T08:07:01.765Z,11.40
2018-04-06T08:09:27.999Z,11.63
2018-04-06T08:11:54.191Z,11.45
2018-04-06T08:14:20.410Z,11.30
2018-04-06T08:16:46.656Z,12.30
2018-04-06T08:19:12.945Z,10.85
2018-04-06T08:21:39.162Z,11.30
2018-04-06T08:24:05.798Z,11.07
2018-04-06T08:26:32.888Z,13.80
2018-04-06T08:28:59.133Z,13.27
2018-04-06T08:31:25.388Z,14.13
2018-04-06T08:33:51.650Z,12.77
2018-04-06T08:36:18.267Z,10.82
2018-04-06T08:38:44.530Z,13.55
2018-04-06T08:41:10.768Z,14.35
2018-04-06T08:43:36.999Z,17.50
2018-04-06T08:46:03.274Z,14.52
2018-04-06T08:48:29.527Z,13.73
2018-04-06T08:50:55.758Z,12.27
2018-04-06T08:53:22.321Z,14.75
2018-04-06T08:55:48.580Z,11.50
2018-04-06T08:58:14.795Z,11.80
2018-04-06T09:00:41.015Z,13.27
2018-04-06T09:03:07.287Z,11.93
2018-04-06T09:05:33.469Z,12.20
2018-04-06T09:08:00.687Z,12.27
2018-04-06T09:10:26.964Z,12.40
2018-04-06T09:12:53.224Z,12.15
2018-04-06T09:15:19.527Z,10.77
2018-04-06T09:17:45.745Z,11.35
2018-04-06T09:20:12.006Z,11.90
2018-04-06T09:22:38.340Z,12.52
2018-04-06T09:25:04.594Z,13.13
2018-04-06T09:27:31.177Z,11.85
2018-04-06T09:29:57.433Z,14.13
2018-04-06T09:32:23.693Z,11.65
2018-04-06T09:34:50.272Z,10.75
2018-04-06T09:37:16.509Z,11.77
2018-04-06T09:39:42.759Z,11.00
2018-04-06T09:42:08.994Z,12.48
2018-04-06T09:44:35.237Z,10.57
2018-04-06T09:47:01.887Z,12.00
2018-04-06T09:49:28.215Z,12.52
2018-04-06T09:51:54.464Z,15.57
2018-04-06T09:54:20.664Z,10.90
2018-04-06T09:56:46.902Z,11.43
2018-04-06T09:59:13.162Z,10.27
2018-04-06T10:01:39.504Z,11.35
2018-04-06T10:04:05.747Z,12.32
2018-04-06T10:06:32.043Z,12.07
2018-04-06T10:08:58.336Z,12.23
2018-04-06T10:11:25.998Z,11.88
2018-04-06T10:13:52.568Z,13.25
2018-04-06T10:16:18.869Z,12.80
2018-04-06T10:18:45.103Z,12.10
2018-04-06T10:21:12.366Z,14.10
2018-04-06T10:23:38.570Z,14.13
2018-04-06T10:26:04.808Z,11.53
2018-04-06T10:28:31.249Z,12.70
2018-04-06T10:30:58.095Z,12.40
2018-04-06T10:33:24.384Z,11.33
2018-04-06T10:35:50.641Z,12.73
2018-04-06T10:38:17.481Z,11.93
2018-04-06T10:40:44.099Z,12.17
2018-04-06T10:43:10.306Z,11.60
2018-04-06T10:45:36.571Z,12.17
2018-04-06T10:48:03.149Z,11.80
2018-04-06T10:50:29.354Z,10.57
2018-04-06T10:52:55.599Z,11.87
2018-04-06T10:55:21.855Z,11.40
2018-04-06T10:57:48.094Z,12.23
2018-04-06T11:00:14.339Z,10.70
2018-04-06T11:02:40.975Z,9.90
2018-04-06T11:05:07.225Z,11.37
2018-04-06T11:07:33.816Z,11.67
2018-04-06T11:10:00.042Z,11.10
2018-04-06T11:12:26.279Z,11.30
2018-04-06T11:14:52.492Z,10.57
2018-04-06T11:17:18.715Z,11.87
2018-04-06T11:19:44.926Z,10.83
2018-04-06T11:22:11.205Z,10.90
2018-04-06T11:24:37.445Z,11.57
2018-04-06T11:27:04.638Z,10.83
2018-04-06T11:29:31.470Z,10.73
2018-04-06T11:31:57.738Z,8.97
2018-04-06T11:34:24.041Z,10.37
2018-04-06T11:36:50.392Z,8.67
2018-04-06T11:39:17.163Z,9.03
2018-04-06T11:41:43.518Z,9.83
2018-04-06T11:44:09.820Z,10.33
2018-04-06T11:46:36.071Z,9.80
2018-04-06T11:49:02.345Z,9.20
2018-04-06T11:51:28.591Z,9.87
2018-04-06T11:53:54.833Z,9.47
2018-04-06T11:56:21.097Z,9.17
2018-04-06T11:58:47.355Z,8.40
2018-04-06T12:01:13.620Z,9.33
2018-04-06T12:03:39.840Z,9.90
2018-04-06T12:06:06.051Z,9.40
2018-04-06T12:08:32.320Z,8.57
2018-04-06T12:10:59.114Z,8.23
2018-04-06T12:13:25.353Z,6.93
2018-04-06T12:15:51.568Z,7.83
2018-04-06T12:18:17.802Z,7.30
2018-04-06T12:20:44.036Z,7.37
2018-04-06T12:23:10.299Z,8.40
2018-04-06T12:25:36.577Z,7.47
2018-04-06T12:28:02.838Z,9.20
2018-04-06T12:30:29.737Z,7.30
2018-04-06T12:32:56.009Z,8.27
2018-04-06T12:35:22.242Z,7.83
2018-04-06T12:37:48.531Z,7.33
2018-04-06T12:40:14.776Z,8.00
2018-04-06T12:42:41.028Z,8.27
2018-04-06T12:45:07.324Z,9.40
2018-04-06T12:47:33.619Z,8.00
2018-04-06T12:49:59.838Z,7.70
2018-04-06T12:52:26.051Z,7.17
2018-04-06T12:54:52.290Z,7.90
2018-04-06T12:57:18.520Z,7.47
2018-04-06T12:59:44.778Z,8.13
2018-04-06T13:02:11.016Z,9.77
2018-04-06T13:04:37.277Z,7.70
2018-04-06T13:07:03.523Z,8.63
2018-04-06T13:09:30.162Z,9.30
2018-04-06T13:11:56.762Z,8.43
2018-04-06T13:14:22.959Z,7.63
2018-04-06T13:16:49.212Z,7.80
2018-04-06T13:19:15.442Z,6.90
2018-04-06T13:21:41.664Z,7.77
2018-04-06T13:24:07.908Z,8.17
2018-04-06T13:26:34.183Z,8.53
2018-04-06T13:29:00.810Z,8.20
2018-04-06T13:31:27.420Z,8.50
2018-04-06T13:33:53.638Z,6.53
2018-04-06T13:36:19.884Z,7.90
2018-04-06T13:38:46.140Z,6.80
2018-04-06T13:41:12.731Z,7.80
2018-04-06T13:43:38.971Z,7.33
2018-04-06T13:46:05.249Z,8.20
2018-04-06T13:48:31.523Z,7.77
2018-04-06T13:50:57.759Z,8.90
2018-04-06T13:53:23.984Z,6.80
2018-04-06T13:55:50.225Z,7.70
2018-04-06T13:58:16.447Z,7.37
2018-04-06T14:00:42.726Z,8.00
2018-04-06T14:03:08.916Z,7.37
2018-04-06T14:05:35.525Z,7.20
2018-04-06T14:08:01.801Z,8.23
2018-04-06T14:10:28.027Z,7.00
2018-04-06T14:12:55.500Z,8.30
2018-04-06T14:15:21.720Z,8.97
2018-04-06T14:17:47.940Z,8.13
2018-04-06T14:20:14.228Z,6.77
2018-04-06T14:22:40.436Z,6.83
2018-04-06T14:25:06.726Z,7.20
2018-04-06T14:27:33.318Z,7.50
2018-04-06T14:30:00.567Z,8.23
2018-04-06T14:32:26.819Z,7.33
2018-04-06T14:34:53.052Z,7.23
2018-04-06T14:37:19.292Z,7.43
2018-04-06T14:39:45.876Z,6.70
2018-04-06T14:42:12.077Z,7.93
2018-04-06T14:44:38.301Z,7.17
2018-04-06T14:47:04.876Z,8.90
2018-04-06T14:49:31.143Z,8.73
2018-04-06T14:51:57.401Z,8.27
2018-04-06T14:54:23.626Z,10.03
2018-04-06T14:56:49.855Z,9.17
2018-04-06T14:59:16.117Z,8.47
2018-04-06T15:01:43.131Z,8.90
2018-04-06T15:04:09.347Z,8.23
2018-04-06T15:06:35.627Z,8.03
2018-04-06T15:09:01.903Z,7.80
2018-04-06T15:11:28.501Z,7.87
2018-04-06T15:13:54.747Z,8.27
2018-04-06T15:16:21.002Z,7.83
2018-04-06T15:18:47.584Z,9.13
2018-04-06T15:21:13.847Z,8.77
2018-04-06T15:23:41.765Z,8.87
2018-04-06T15:26:07.997Z,8.40
2018-04-06T15:28:34.288Z,9.20
2018-04-06T15:31:00.592Z,8.63
2018-04-06T15:33:26.806Z,9.30
2018-04-06T15:35:53.132Z,9.47
2018-04-06T15:38:19.380Z,7.63
2018-04-06T15:40:45.622Z,8.87
2018-04-06T15:43:12.232Z,9.00
2018-04-06T15:45:38.483Z,9.40
2018-04-06T15:48:06.051Z,9.30
2018-04-06T15:50:32.650Z,9.90
2018-04-06T15:52:58.901Z,9.47
2018-04-06T15:55:25.164Z,8.93
2018-04-06T15:57:51.365Z,9.27
2018-04-06T16:00:17.991Z,9.13
2018-04-06T16:02:44.224Z,9.57
2018-04-06T16:05:10.503Z,8.80
2018-04-06T16:07:36.887Z,8.13
2018-04-06T16:10:03.546Z,8.87
2018-04-06T16:12:29.795Z,10.73
2018-04-06T16:14:56.084Z,12.00
2018-04-06T16:17:22.318Z,9.00
2018-04-06T16:19:48.581Z,11.37
2018-04-06T16:22:14.860Z,10.13
2018-04-06T16:24:41.100Z,9.47
2018-04-06T16:27:07.715Z,8.27
2018-04-06T16:29:33.989Z,9.63
2018-04-06T16:32:00.249Z,8.97
2018-04-06T16:34:26.467Z,10.30
2018-04-06T16:36:52.719Z,9.67
2018-04-06T16:39:18.982Z,8.70
2018-04-06T16:41:45.615Z,8.70
2018-04-06T16:44:11.945Z,8.70
2018-04-06T16:46:38.547Z,9.70
2018-04-06T16:49:04.814Z,9.87
2018-04-06T16:51:31.432Z,9.83
2018-04-06T16:53:57.649Z,8.87
2018-04-06T16:56:24.532Z,8.90
2018-04-06T16:58:50.794Z,10.63
2018-04-06T17:01:17.045Z,7.93
2018-04-06T17:03:44.867Z,8.70
2018-04-06T17:06:11.122Z,10.50
2018-04-06T17:08:37.383Z,9.50
2018-04-06T17:11:03.608Z,8.60
2018-04-06T17:13:29.905Z,46.47
2018-04-06T17:15:56.116Z,14.87
2018-04-06T17:18:22.358Z,9.77
2018-04-06T17:20:55.659Z,8.67
2018-04-06T17:23:21.917Z,10.60
2018-04-06T17:25:49.515Z,8.40
2018-04-06T17:28:15.769Z,9.03
2018-04-06T17:30:42.003Z,9.60
2018-04-06T17:33:08.283Z,10.10
2018-04-06T17:35:35.546Z,8.87
2018-04-06T17:38:01.785Z,8.77
2018-04-06T17:40:28.757Z,7.50
2018-04-06T17:42:55.028Z,7.60
2018-04-06T17:45:21.262Z,8.70
2018-04-06T17:47:47.490Z,9.13
2018-04-06T17:50:13.759Z,8.27
2018-04-06T17:52:40.038Z,8.73
2018-04-06T17:55:06.304Z,9.47
2018-04-06T17:57:32.527Z,9.17
2018-04-06T17:59:58.776Z,8.67
2018-04-06T18:02:25.031Z,7.87
2018-04-06T18:04:51.314Z,7.00
2018-04-06T18:07:17.648Z,9.20
2018-04-06T18:09:43.892Z,9.23
2018-04-06T18:12:10.205Z,11.13
2018-04-06T18:14:36.437Z,9.90
2018-04-06T18:17:02.686Z,7.97
2018-04-06T18:19:28.936Z,8.37
2018-04-06T18:21:55.214Z,7.85
2018-04-06T18:24:21.458Z,9.15
2018-04-06T18:26:47.735Z,9.77
2018-04-06T18:29:14.036Z,8.98
2018-04-06T18:31:40.431Z,8.45
2018-04-06T18:34:06.729Z,8.27
2018-04-06T18:36:33.028Z,7.93
2018-04-06T18:38:59.292Z,9.70
2018-04-06T18:41:25.542Z,7.50
2018-04-06T18:43:51.882Z,8.30
2018-04-06T18:46:18.180Z,9.17
2018-04-06T18:48:44.462Z,9.88
2018-04-06T18:51:10.720Z,8.77
2018-04-06T18:53:36.983Z,8.70
2018-04-06T18:56:03.641Z,9.13
2018-04-06T18:58:29.917Z,8.00
2018-04-06T19:00:56.227Z,8.55
2018-04-06T19:03:22.450Z,8.23
2018-04-06T19:05:49.528Z,8.82
2018-04-06T19:08:15.820Z,9.45
2018-04-06T19:10:42.127Z,8.50
2018-04-06T19:13:08.404Z,7.75
2018-04-06T19:15:34.759Z,8.20
2018-04-06T19:18:01.020Z,8.95
2018-04-06T19:20:27.423Z,8.88
2018-04-06T19:22:53.759Z,8.80
2018-04-06T19:25:20.072Z,9.52
2018-04-06T19:27:46.327Z,8.70
2018-04-06T19:30:12.949Z,8.45
2018-04-06T19:32:39.201Z,9.55
2018-04-06T19:35:05.497Z,9.30
2018-04-06T19:37:31.735Z,9.13
2018-04-06T19:39:58.053Z,10.90
2018-04-06T19:42:24.340Z,10.35
2018-04-06T19:44:50.632Z,9.45
2018-04-06T19:47:17.270Z,8.70
2018-04-06T19:49:44.021Z,9.13
2018-04-06T19:52:10.401Z,9.30
2018-04-06T19:54:36.677Z,9.25
2018-04-06T19:57:03.333Z,8.45
2018-04-06T19:59:29.661Z,9.40
2018-04-06T20:01:55.896Z,10.23
2018-04-06T20:04:22.146Z,8.40
2018-04-06T20:06:48.514Z,9.48
2018-04-06T20:09:14.776Z,9.18
2018-04-06T20:11:42.369Z,11.50
2018-04-06T20:14:08.792Z,9.57
2018-04-06T20:16:35.122Z,10.13
2018-04-06T20:19:02.341Z,10.25
2018-04-06T20:21:29.173Z,9.93
2018-04-06T20:23:55.427Z,10.10
2018-04-06T20:26:22.062Z,10.32
2018-04-06T20:28:48.843Z,11.68
2018-04-06T20:31:15.086Z,8.55
2018-04-06T20:33:41.310Z,9.30
2018-04-06T20:36:09.235Z,10.55
2018-04-06T20:38:35.485Z,10.90
2018-04-06T20:41:01.734Z,8.93
2018-04-06T20:43:28.074Z,9.55
2018-04-06T20:45:54.308Z,8.68
2018-04-06T20:48:20.538Z,10.00
2018-04-06T20:50:46.793Z,11.38
2018-04-06T20:53:13.411Z,9.35
2018-04-06T20:55:39.671Z,9.40
2018-04-06T20:58:05.940Z,11.60
2018-04-06T21:00:32.842Z,8.88
2018-04-06T21:02:59.483Z,10.43
2018-04-06T21:05:25.741Z,9.95
2018-04-06T21:07:51.988Z,9.48
2018-04-06T21:10:18.245Z,9.98
2018-04-06T21:12:44.898Z,9.95
2018-04-06T21:15:11.504Z,9.10
2018-04-06T21:17:37.751Z,10.73
2018-04-06T21:20:04.391Z,10.23
2018-04-06T21:22:31.017Z,10.15
2018-04-06T21:24:57.266Z,11.75
2018-04-06T21:27:23.894Z,11.07
2018-04-06T21:29:50.533Z,11.85
2018-04-06T21:32:17.209Z,10.40
2018-04-06T21:34:43.478Z,10.02
2018-04-06T21:37:09.771Z,11.23
2018-04-06T21:39:36.057Z,10.10
2018-04-06T21:42:02.716Z,10.07
2018-04-06T21:44:28.978Z,11.98
2018-04-06T21:46:55.213Z,11.85
2018-04-06T21:49:21.438Z,10.70
2018-04-06T21:51:47.717Z,11.50
2018-04-06T21:54:13.980Z,11.80
2018-04-06T21:56:40.263Z,10.93
2018-04-06T21:59:06.513Z,10.70
2018-04-06T22:01:33.150Z,10.48
2018-04-06T22:03:59.789Z,10.60
2018-04-06T22:06:26.062Z,10.68
2018-04-06T22:08:52.303Z,11.00
2018-04-06T22:11:18.578Z,11.27
2018-04-06T22:13:44.837Z,11.27
2018-04-06T22:16:11.116Z,12.37
2018-04-06T22:18:37.747Z,12.10
2018-04-06T22:21:03.969Z,11.60
2018-04-06T22:23:30.261Z,9.40
2018-04-06T22:25:56.517Z,11.40
2018-04-06T22:28:22.782Z,13.25
2018-04-06T22:30:49.024Z,11.55
2018-04-06T22:33:15.870Z,10.73
2018-04-06T22:35:42.079Z,10.35
2018-04-06T22:38:09.228Z,11.43
2018-04-06T22:40:35.835Z,10.52
2018-04-06T22:43:02.113Z,12.23
2018-04-06T22:45:28.363Z,11.15
2018-04-06T22:47:54.640Z,9.30
2018-04-06T22:50:21.236Z,11.52
2018-04-06T22:52:47.498Z,11.77
2018-04-06T22:55:13.746Z,10.27
2018-04-06T22:57:40.026Z,10.82
2018-04-06T23:00:06.242Z,10.85
2018-04-06T23:02:32.509Z,12.07
2018-04-06T23:04:58.728Z,11.63
2018-04-06T23:07:24.980Z,11.40
2018-04-06T23:09:51.546Z,9.25
2018-04-06T23:12:17.794Z,12.37
2018-04-06T23:14:44.023Z,12.80
2018-04-06T23:17:10.279Z,11.50
2018-04-06T23:19:36.526Z,11.68
2018-04-06T23:22:03.138Z,11.02
2018-04-06T23:24:29.360Z,9.68
2018-04-06T23:26:55.556Z,11.52
2018-04-06T23:29:21.780Z,12.77
2018-04-06T23:31:47.982Z,10.70
2018-04-06T23:34:14.570Z,11.75
2018-04-06T23:36:41.396Z,12.40
2018-04-06T23:39:07.643Z,10.52
2018-04-06T23:41:33.861Z,13.07
2018-04-06T23:44:00.093Z,12.05
2018-04-06T23:46:26.292Z,10.98
2018-04-06T23:48:52.544Z,13.00
2018-04-06T23:51:18.760Z,11.23
2018-04-06T23:53:45.006Z,12.07
2018-04-06T23:56:11.272Z,13.10
2018-04-06T23:58:37.492Z,13.25
